Weather at Limnos Airport

Public forecast

Using degrees Celsius for public forecast. Weather courtesy of forecast.io.

Current aviation weather report (METAR) for Limnos Airport

Retrieved 2021/04/12 21:50 UTC (46 minutes ago):

LGLM 122150Z 00000KT CAVOK 09/06 Q1020

Aviation forecast (TAF) for Limnos Airport

Forecast is more than 12 hours old.

Retrieved 2020/03/18 09:39 UTC (1 year ago):

TAF LGLM 180800Z 1809/1821 05015KT 9999 FEW030 BECMG 1813/1815 05015G25KT